Time;durP1;ratioP1;P1;durP2;ratioP2;P2;SDS_P1;SDS_P2;PMS_P1;PMS_P2;Temp;Humidity;BMP_temperature;BMP_pressure;BME280_temperature;BME280_humidity;BME280_pressure;Samples;Min_cycle;Max_cycle;Signal;HPM_P1;HPM_P2
2021/07/01 00:01:13;;;;;;;42.00;18.73;;;;;13.10;101110.00;;;;10522749;28;20185;-77
2021/07/01 00:06:17;;;;;;;38.30;18.93;;;;;13.10;101100.00;;;;10522143;28;20321;-77
2021/07/01 00:11:19;;;;;;;46.40;17.97;;;;;13.00;101091.00;;;;10488894;28;20221;-77
2021/07/01 00:16:22;;;;;;;35.40;17.70;;;;;13.00;101093.00;;;;10487555;28;20260;-77
2021/07/01 00:21:24;;;;;;;35.33;16.00;;;;;13.00;101092.00;;;;10520543;28;20247;-77
2021/07/01 00:26:26;;;;;;;31.50;17.43;;;;;13.00;101080.00;;;;10455809;28;20292;-77
2021/07/01 00:31:30;;;;;;;37.33;18.20;;;;;13.00;101087.00;;;;10470816;28;20198;-77
2021/07/01 00:36:34;;;;;;;34.57;17.73;;;;;13.00;101082.00;;;;10454218;28;20205;-77
2021/07/01 00:41:36;;;;;;;39.33;17.73;;;;;13.00;101089.00;;;;10454585;28;20247;-78
2021/07/01 00:46:38;;;;;;;31.70;17.43;;;;;13.00;101085.00;;;;10476551;28;20255;-77
2021/07/01 00:51:41;;;;;;;30.37;17.50;;;;;13.00;101092.00;;;;10488452;28;20595;-77
2021/07/01 00:56:44;;;;;;;36.40;17.83;;;;;13.00;101089.00;;;;10487781;28;20221;-77
2021/07/01 01:01:46;;;;;;;33.93;18.10;;;;;13.00;101101.00;;;;10490465;28;20197;-77
2021/07/01 01:06:49;;;;;;;30.90;16.37;;;;;13.00;101099.00;;;;10490556;28;20692;-77
2021/07/01 01:11:51;;;;;;;39.47;17.70;;;;;13.00;101085.00;;;;10490723;28;20189;-77
2021/07/01 01:16:53;;;;;;;34.40;18.47;;;;;13.00;101096.00;;;;10456731;28;20256;-77
2021/07/01 01:21:55;;;;;;;32.77;16.30;;;;;13.00;101086.00;;;;10472941;28;20225;-77
2021/07/01 01:26:57;;;;;;;31.83;16.00;;;;;13.00;101095.00;;;;10497415;28;20283;-77
2021/07/01 01:32:00;;;;;;;31.77;15.27;;;;;13.00;101083.00;;;;10515158;28;20687;-77
2021/07/01 01:37:07;;;;;;;36.53;16.17;;;;;13.00;101086.00;;;;10514817;28;20209;-78
2021/07/01 01:42:10;;;;;;;33.87;16.23;;;;;13.00;101081.00;;;;10516899;28;20210;-77
2021/07/01 01:47:17;;;;;;;37.67;16.27;;;;;13.00;101069.00;;;;10515614;28;20185;-77
2021/07/01 01:52:20;;;;;;;34.93;16.00;;;;;13.00;101076.00;;;;10514464;28;20211;-78
2021/07/01 01:57:27;;;;;;;27.87;14.83;;;;;13.00;101081.00;;;;10472864;28;20307;-78
2021/07/01 02:02:54;;;;;;;31.50;16.00;;;;;13.00;101079.00;;;;10505727;28;20194;-77
2021/07/01 02:08:14;;;;;;;31.00;15.53;;;;;13.00;101082.00;;;;10478445;28;20189;-77
2021/07/01 02:13:16;;;;;;;29.77;14.50;;;;;13.00;101078.00;;;;10473392;28;20194;-78
2021/07/01 02:18:47;;;;;;;25.77;14.50;;;;;13.00;101082.00;;;;10486117;28;20213;-78
2021/07/01 02:23:49;;;;;;;32.73;15.97;;;;;13.00;101082.00;;;;10475164;28;20203;-77
2021/07/01 02:28:52;;;;;;;33.77;14.63;;;;;13.00;101083.00;;;;10517148;28;20181;-77
2021/07/01 02:33:56;;;;;;;29.77;15.30;;;;;13.00;101082.00;;;;10516062;28;20215;-78
2021/07/01 02:39:18;;;;;;;25.83;14.53;;;;;13.00;101089.00;;;;10534890;28;20227;-78
2021/07/01 02:44:21;;;;;;;28.63;15.83;;;;;13.00;101095.00;;;;10516269;28;20663;-78
2021/07/01 02:49:42;;;;;;;25.93;15.93;;;;;13.00;101093.00;;;;10532148;28;20283;-78
2021/07/01 02:54:49;;;;;;;31.97;16.43;;;;;13.00;101105.00;;;;10516193;28;20248;-78
2021/07/01 02:59:51;;;;;;;32.10;17.47;;;;;12.90;101096.00;;;;10499320;28;20282;-77
2021/07/01 03:04:56;;;;;;;37.53;18.13;;;;;12.90;101090.00;;;;10498922;28;20196;-78
2021/07/01 03:10:03;;;;;;;36.90;18.80;;;;;12.90;101095.00;;;;10499156;28;20536;-77
2021/07/01 03:15:11;;;;;;;35.43;18.90;;;;;12.80;101095.00;;;;10497471;28;20196;-77
2021/07/01 03:20:14;;;;;;;35.53;17.80;;;;;12.80;101104.00;;;;10530279;28;20296;-77
2021/07/01 03:25:41;;;;;;;34.63;18.73;;;;;12.90;101096.00;;;;10517241;28;20193;-77
2021/07/01 03:30:44;;;;;;;34.57;16.33;;;;;12.80;101102.00;;;;10512870;28;20200;-77
2021/07/01 03:35:46;;;;;;;29.40;15.67;;;;;12.80;101105.00;;;;10496577;28;20212;-77
2021/07/01 03:41:07;;;;;;;34.67;16.93;;;;;12.80;101101.00;;;;10534066;28;20192;-78
2021/07/01 03:46:09;;;;;;;34.67;16.70;;;;;12.80;101090.00;;;;10530884;28;20581;-77
2021/07/01 03:51:12;;;;;;;42.90;18.53;;;;;12.80;101096.00;;;;10513079;28;20193;-78
2021/07/01 03:56:40;;;;;;;37.30;18.80;;;;;12.90;101092.00;;;;10531354;28;20209;-77
2021/07/01 04:01:48;;;;;;;37.77;18.60;;;;;12.90;101094.00;;;;10539110;28;20203;-78
2021/07/01 04:06:51;;;;;;;40.33;18.37;;;;;13.00;101104.00;;;;10505812;28;20577;-78
2021/07/01 04:11:53;;;;;;;35.73;17.90;;;;;13.10;101106.00;;;;10522749;28;20189;-77
2021/07/01 04:16:56;;;;;;;36.03;18.43;;;;;13.20;101093.00;;;;10521229;28;20232;-77
2021/07/01 04:22:17;;;;;;;33.80;18.70;;;;;13.30;101090.00;;;;10523016;28;20632;-77
2021/07/01 04:27:39;;;;;;;35.43;18.90;;;;;13.30;101093.00;;;;10462633;28;20186;-77
2021/07/01 04:32:41;;;;;;;32.43;17.37;;;;;13.40;101082.00;;;;10496089;28;20209;-77
2021/07/01 04:37:43;;;;;;;34.97;15.87;;;;;13.40;101096.00;;;;10504087;28;20217;-77
2021/07/01 04:42:45;;;;;;;35.43;16.47;;;;;13.50;101092.00;;;;10537217;28;20231;-77
2021/07/01 04:47:48;;;;;;;24.63;15.43;;;;;13.50;101104.00;;;;10521232;28;20288;-77
2021/07/01 04:52:50;;;;;;;29.97;14.77;;;;;13.50;101112.00;;;;10521314;28;20189;-78
2021/07/01 04:58:11;;;;;;;31.80;15.20;;;;;13.50;101104.00;;;;10540375;28;20540;-78
2021/07/01 05:03:18;;;;;;;28.27;15.33;;;;;13.60;101115.00;;;;10505555;28;20291;-77
2021/07/01 05:08:21;;;;;;;26.10;14.90;;;;;13.80;101111.00;;;;10521482;28;20272;-78
2021/07/01 05:13:25;;;;;;;26.80;14.13;;;;;14.10;101112.00;;;;10521267;28;20192;-78
2021/07/01 05:18:27;;;;;;;26.87;12.70;;;;;14.20;101102.00;;;;10504764;28;20215;-78
2021/07/01 05:23:52;;;;;;;25.97;12.77;;;;;14.10;101102.00;;;;10522317;28;20196;-78
2021/07/01 05:29:12;;;;;;;27.50;13.10;;;;;14.00;101107.00;;;;10513198;28;20186;-78
2021/07/01 05:34:53;;;;;;;26.60;11.63;;;;;13.90;101106.00;;;;10484654;28;20672;-78
2021/07/01 05:39:55;;;;;;;22.80;11.73;;;;;13.80;101107.00;;;;10513326;28;20221;-78
2021/07/01 05:44:57;;;;;;;22.20;12.40;;;;;13.70;101114.00;;;;10463226;28;20676;-78
2021/07/01 05:49:59;;;;;;;21.63;12.17;;;;;13.70;101118.00;;;;10480500;28;20193;-77
2021/07/01 05:55:03;;;;;;;25.93;12.07;;;;;13.60;101113.00;;;;10505865;28;20196;-78
2021/07/01 06:00:09;;;;;;;23.83;12.60;;;;;13.50;101114.00;;;;10521118;28;20258;-78
2021/07/01 06:05:19;;;;;;;27.77;13.03;;;;;13.40;101129.00;;;;10522565;28;20193;-79
2021/07/01 06:10:42;;;;;;;20.03;11.63;;;;;13.40;101129.00;;;;10538465;28;20555;-78
2021/07/01 06:15:44;;;;;;;28.80;12.90;;;;;13.30;101134.00;;;;10522605;28;20193;-78
2021/07/01 06:20:47;;;;;;;24.07;12.77;;;;;13.50;101130.00;;;;10521760;28;20205;-78
2021/07/01 06:25:50;;;;;;;22.20;12.87;;;;;13.60;101139.00;;;;10520456;28;20197;-77
2021/07/01 06:30:52;;;;;;;31.13;14.60;;;;;13.90;101131.00;;;;10538189;28;20238;-77
2021/07/01 06:35:55;;;;;;;29.47;14.60;;;;;14.00;101142.00;;;;10506525;28;20213;-78
2021/07/01 06:41:17;;;;;;;30.50;15.73;;;;;14.20;101136.00;;;;10503450;28;20240;-78
2021/07/01 06:46:41;;;;;;;32.03;14.67;;;;;14.60;101144.00;;;;10499435;28;20185;-78
2021/07/01 06:52:03;;;;;;;29.00;14.77;;;;;14.70;101143.00;;;;10483607;28;20641;-77
2021/07/01 06:57:25;;;;;;;32.83;14.33;;;;;14.70;101146.00;;;;10576229;28;20215;-78
2021/07/01 07:02:32;;;;;;;27.73;13.27;;;;;14.70;101154.00;;;;10559430;28;20227;-78
2021/07/01 07:07:35;;;;;;;20.63;11.70;;;;;14.90;101158.00;;;;10543811;28;20193;-78
2021/07/01 07:12:56;;;;;;;24.37;12.10;;;;;15.20;101161.00;;;;10573428;28;20692;-77
2021/07/01 07:18:22;;;;;;;23.93;11.13;;;;;15.50;101152.00;;;;10470745;28;20206;-77
2021/07/01 07:23:31;;;;;;;20.07;8.77;;;;;15.70;101164.00;;;;10514999;28;20211;-78
2021/07/01 07:28:37;;;;;;;15.53;6.50;;;;;15.80;101168.00;;;;10561154;28;20192;-77
2021/07/01 07:33:39;;;;;;;16.80;7.57;;;;;15.90;101176.00;;;;10544372;28;20213;-78
2021/07/01 07:38:42;;;;;;;22.53;8.90;;;;;16.10;101182.00;;;;10517134;28;20213;-78
2021/07/01 07:43:45;;;;;;;21.57;8.37;;;;;16.40;101178.00;;;;10477931;28;20209;-77
2021/07/01 07:48:47;;;;;;;19.20;7.95;;;;;16.50;101181.00;;;;10520770;28;20181;-78
2021/07/01 07:53:54;;;;;;;17.55;7.00;;;;;16.80;101166.00;;;;10476906;28;20196;-78
2021/07/01 07:58:56;;;;;;;14.00;6.78;;;;;16.70;101167.00;;;;10502043;28;20533;-78
2021/07/01 08:04:05;;;;;;;12.73;5.63;;;;;16.70;101164.00;;;;10500806;28;20211;-78
2021/07/01 08:09:07;;;;;;;12.27;6.07;;;;;17.00;101160.00;;;;10521316;28;20189;-80
2021/07/01 08:14:12;;;;;;;9.90;5.40;;;;;17.00;101166.00;;;;10520352;28;20196;-79
2021/07/01 08:19:15;;;;;;;8.35;5.53;;;;;17.00;101163.00;;;;10536229;28;20250;-80
2021/07/01 08:24:17;;;;;;;13.15;4.88;;;;;17.20;101172.00;;;;10528001;28;20193;-78
2021/07/01 08:29:20;;;;;;;11.50;5.72;;;;;17.30;101171.00;;;;10502765;28;20201;-79
2021/07/01 08:34:23;;;;;;;10.68;5.90;;;;;17.40;101173.00;;;;10520012;28;20213;-79
2021/07/01 08:39:29;;;;;;;6.82;4.70;;;;;17.20;101176.00;;;;10520438;28;20221;-79
2021/07/01 08:44:42;;;;;;;10.35;5.13;;;;;17.10;101187.00;;;;10521052;28;20223;-79
2021/07/01 08:49:53;;;;;;;11.43;4.35;;;;;17.30;101188.00;;;;10544354;28;20259;-79
2021/07/01 08:54:57;;;;;;;9.38;4.25;;;;;17.20;101194.00;;;;10552489;28;20203;-78
2021/07/01 09:00:01;;;;;;;8.30;4.40;;;;;17.20;101194.00;;;;10587198;28;20218;-79
2021/07/01 09:05:18;;;;;;;13.25;4.43;;;;;17.30;101193.00;;;;10585855;28;20590;-79
2021/07/01 09:10:21;;;;;;;11.90;4.25;;;;;17.30;101193.00;;;;10552356;28;20184;-79
2021/07/01 09:15:25;;;;;;;11.70;4.78;;;;;17.40;101202.00;;;;10568733;28;20591;-79
2021/07/01 09:20:33;;;;;;;12.30;4.88;;;;;17.50;101204.00;;;;10550310;28;20204;-80
2021/07/01 09:25:37;;;;;;;8.43;4.82;;;;;17.60;101207.00;;;;10554455;28;20188;-80
2021/07/01 09:30:40;;;;;;;8.27;4.20;;;;;17.60;101202.00;;;;10516812;28;20189;-79
2021/07/01 09:35:44;;;;;;;14.52;5.07;;;;;17.60;101217.00;;;;10555032;28;20221;-80
2021/07/01 09:40:46;;;;;;;10.90;5.15;;;;;17.40;101213.00;;;;10483084;28;20236;-80
2021/07/01 09:45:50;;;;;;;9.20;4.70;;;;;17.50;101216.00;;;;10498891;28;20263;-79
2021/07/01 09:50:53;;;;;;;10.77;4.72;;;;;17.80;101213.00;;;;10498378;28;20186;-80
2021/07/01 09:55:56;;;;;;;9.25;4.47;;;;;18.10;101206.00;;;;10499695;28;20204;-79
2021/07/01 10:00:59;;;;;;;12.52;4.88;;;;;18.10;101218.00;;;;10555405;28;20205;-80
2021/07/01 10:06:15;;;;;;;13.20;4.60;;;;;18.10;101220.00;;;;10536878;28;20193;-80
2021/07/01 10:11:49;;;;;;;11.60;5.93;;;;;18.40;101223.00;;;;10515430;28;20220;-81
2021/07/01 10:16:52;;;;;;;10.38;4.80;;;;;19.20;101215.00;;;;10461514;28;20190;-80
2021/07/01 10:22:07;;;;;;;11.52;4.75;;;;;19.50;101217.00;;;;10461079;28;20743;-80
2021/07/01 10:27:09;;;;;;;9.35;3.83;;;;;19.70;101223.00;;;;10476852;28;20197;-80
2021/07/01 10:32:12;;;;;;;10.57;4.25;;;;;20.00;101225.00;;;;10476358;28;20272;-81
2021/07/01 10:37:19;;;;;;;8.43;4.30;;;;;20.30;101223.00;;;;10476656;28;20317;-81
2021/07/01 10:42:21;;;;;;;7.10;3.83;;;;;20.50;101220.00;;;;10510678;28;20232;-80
2021/07/01 10:47:24;;;;;;;9.50;4.20;;;;;20.60;101216.00;;;;10528914;28;20185;-81
2021/07/01 10:52:38;;;;;;;7.70;4.00;;;;;20.80;101222.00;;;;10507778;28;20197;-80
2021/07/01 10:57:51;;;;;;;9.70;4.40;;;;;20.80;101216.00;;;;10493980;28;20205;-81
2021/07/01 11:02:55;;;;;;;7.75;3.92;;;;;21.20;101208.00;;;;10477295;28;20209;-81
2021/07/01 11:08:04;;;;;;;7.97;3.83;;;;;21.10;101211.00;;;;10498630;28;20192;-81
2021/07/01 11:13:08;;;;;;;8.00;3.95;;;;;20.70;101223.00;;;;10519212;28;20196;-80
2021/07/01 11:18:10;;;;;;;10.30;4.47;;;;;20.30;101219.00;;;;10484426;28;20239;-80
2021/07/01 11:23:20;;;;;;;9.77;4.10;;;;;20.20;101219.00;;;;10478493;28;20251;-81
2021/07/01 11:28:29;;;;;;;9.93;4.05;;;;;20.40;101209.00;;;;10496233;28;20196;-81
2021/07/01 11:33:31;;;;;;;7.22;3.50;;;;;20.60;101215.00;;;;10493460;28;20264;-79
2021/07/01 11:38:33;;;;;;;7.13;4.20;;;;;20.50;101213.00;;;;10476683;28;20692;-81
2021/07/01 11:43:38;;;;;;;9.38;4.25;;;;;20.70;101202.00;;;;10494498;28;20193;-81
2021/07/01 11:48:44;;;;;;;9.93;4.15;;;;;20.80;101198.00;;;;10477604;28;20200;-80
2021/07/01 11:53:48;;;;;;;11.07;4.30;;;;;20.50;101218.00;;;;10526726;28;20589;-82
2021/07/01 11:58:50;;;;;;;14.38;5.50;;;;;20.20;101223.00;;;;10576001;28;20244;-80
2021/07/01 12:03:52;;;;;;;6.97;4.47;;;;;20.10;101222.00;;;;10543476;28;20192;-79
2021/07/01 12:08:54;;;;;;;12.18;5.15;;;;;20.00;101217.00;;;;10544699;28;20192;-80
2021/07/01 12:13:56;;;;;;;7.82;4.40;;;;;20.10;101223.00;;;;10562591;28;20192;-81
2021/07/01 12:18:59;;;;;;;10.02;4.80;;;;;20.40;101225.00;;;;10562356;28;20204;-81
2021/07/01 12:24:04;;;;;;;10.32;4.93;;;;;20.90;101221.00;;;;10549773;28;20190;-81
2021/07/01 12:29:12;;;;;;;8.95;4.95;;;;;21.10;101225.00;;;;10485008;28;20546;-82
2021/07/01 12:34:21;;;;;;;9.82;5.15;;;;;20.90;101222.00;;;;10466817;28;20221;-81
2021/07/01 12:39:25;;;;;;;11.23;5.72;;;;;20.70;101220.00;;;;10467417;28;20286;-81
2021/07/01 12:44:32;;;;;;;10.32;5.32;;;;;20.80;101234.00;;;;10483640;28;20194;-82
2021/07/01 12:49:37;;;;;;;11.77;4.43;;;;;20.90;101229.00;;;;10483597;28;20506;-81
2021/07/01 12:54:41;;;;;;;9.77;4.68;;;;;21.10;101234.00;;;;10524425;28;20612;-82
2021/07/01 12:59:46;;;;;;;9.02;4.93;;;;;21.20;101242.00;;;;10510602;28;20590;-82
2021/07/01 13:04:51;;;;;;;9.82;4.93;;;;;21.30;101246.00;;;;10511192;28;20200;-82
2021/07/01 13:09:56;;;;;;;11.82;4.75;;;;;20.80;101226.00;;;;10526796;28;20535;-80
2021/07/01 13:15:01;;;;;;;9.85;4.60;;;;;20.00;101248.00;;;;10509892;28;20185;-81
2021/07/01 13:20:09;;;;;;;8.55;4.60;;;;;20.30;101246.00;;;;10523918;28;20304;-81
2021/07/01 13:25:18;;;;;;;12.13;5.57;;;;;20.60;101240.00;;;;10507822;28;20721;-80
2021/07/01 13:30:20;;;;;;;11.80;5.40;;;;;21.40;101248.00;;;;10540807;28;20205;-82
2021/07/01 13:35:22;;;;;;;10.60;6.13;;;;;22.50;101245.00;;;;10522089;28;20217;-82
2021/07/01 13:40:28;;;;;;;9.40;5.45;;;;;23.50;101237.00;;;;10480336;28;20225;-81
2021/07/01 13:45:31;;;;;;;9.20;4.63;;;;;22.70;101237.00;;;;10477490;28;20223;-81
2021/07/01 13:50:48;;;;;;;9.20;5.45;;;;;24.20;101222.00;;;;10505985;28;20189;-82
2021/07/01 13:55:53;;;;;;;7.05;4.82;;;;;24.80;101230.00;;;;10486674;28;20212;-81
2021/07/01 14:00:57;;;;;;;6.97;4.35;;;;;23.30;101233.00;;;;10520715;28;20204;-81
2021/07/01 14:06:05;;;;;;;11.43;5.88;;;;;21.80;101232.00;;;;10508965;28;20217;-81
2021/07/01 14:11:15;;;;;;;6.43;4.93;;;;;21.60;101225.00;;;;10479025;28;20255;-81
2021/07/01 14:16:22;;;;;;;10.40;5.35;;;;;21.60;101231.00;;;;10478215;28;20202;-80
2021/07/01 14:21:41;;;;;;;9.60;4.57;;;;;22.20;101215.00;;;;10494170;28;20209;-81
2021/07/01 14:26:51;;;;;;;6.65;4.20;;;;;28.00;101215.00;;;;10505087;28;20652;-80
2021/07/01 14:31:54;;;;;;;7.32;5.57;;;;;29.80;101210.00;;;;10517122;28;20232;-81
2021/07/01 14:36:58;;;;;;;8.90;4.60;;;;;29.40;101228.00;;;;10500088;28;20595;-82
2021/07/01 14:42:08;;;;;;;12.77;5.60;;;;;25.00;101224.00;;;;10497537;28;20223;-82
2021/07/01 14:47:15;;;;;;;9.05;5.13;;;;;23.50;101223.00;;;;10502745;28;20189;-82
2021/07/01 14:52:20;;;;;;;10.73;5.18;;;;;22.20;101215.00;;;;10536084;28;20217;-81
2021/07/01 14:57:29;;;;;;;6.80;4.80;;;;;21.20;101218.00;;;;10499532;28;20217;-81
2021/07/01 15:02:35;;;;;;;8.73;4.90;;;;;27.80;101193.00;;;;10476738;28;20212;-80
2021/07/01 15:07:41;;;;;;;9.23;4.95;;;;;26.30;101208.00;;;;10508876;28;20715;-79
2021/07/01 15:13:01;;;;;;;12.82;6.45;;;;;26.60;101196.00;;;;10492202;28;20285;-81
2021/07/01 15:18:05;;;;;;;11.13;5.35;;;;;24.30;101206.00;;;;10458072;28;20279;-80
2021/07/01 15:23:10;;;;;;;12.38;5.80;;;;;23.50;101203.00;;;;10492802;28;20656;-81
2021/07/01 15:28:12;;;;;;;6.72;4.05;;;;;23.30;101201.00;;;;10477391;28;20185;-81
2021/07/01 15:33:14;;;;;;;9.95;5.15;;;;;22.90;101210.00;;;;10509707;28;20213;-81
2021/07/01 15:38:16;;;;;;;10.13;4.72;;;;;22.10;101203.00;;;;10492063;28;20259;-81
2021/07/01 15:43:18;;;;;;;10.05;4.53;;;;;25.10;101187.00;;;;10491884;28;20578;-81
2021/07/01 15:48:21;;;;;;;6.90;5.00;;;;;27.10;101194.00;;;;10489793;28;20197;-79
2021/07/01 15:53:23;;;;;;;8.15;5.47;;;;;23.70;101208.00;;;;10492145;28;20208;-80
2021/07/01 15:58:25;;;;;;;10.10;5.05;;;;;22.50;101203.00;;;;10515441;28;20209;-80
2021/07/01 16:03:31;;;;;;;12.65;5.25;;;;;21.80;101204.00;;;;10520278;28;20200;-81
2021/07/01 16:08:35;;;;;;;9.98;5.57;;;;;21.40;101201.00;;;;10523291;28;20189;-80
2021/07/01 16:13:37;;;;;;;8.43;5.22;;;;;21.10;101199.00;;;;10526299;28;20215;-80
2021/07/01 16:18:41;;;;;;;10.38;4.97;;;;;21.30;101212.00;;;;10525574;28;20201;-79
2021/07/01 16:23:44;;;;;;;9.50;4.57;;;;;21.10;101197.00;;;;10511201;28;20217;-79
2021/07/01 16:28:49;;;;;;;8.25;4.90;;;;;21.20;101194.00;;;;10500343;28;20190;-79
2021/07/01 16:33:51;;;;;;;9.18;4.63;;;;;21.10;101199.00;;;;10498020;28;20234;-81
2021/07/01 16:38:54;;;;;;;9.63;4.85;;;;;20.80;101192.00;;;;10466643;28;20222;-80
2021/07/01 16:43:56;;;;;;;10.23;4.68;;;;;20.90;101188.00;;;;10468244;28;20189;-80
2021/07/01 16:49:18;;;;;;;11.60;5.80;;;;;20.70;101184.00;;;;10486481;28;20204;-80
2021/07/01 16:54:28;;;;;;;11.35;5.68;;;;;20.50;101199.00;;;;10500887;28;20243;-80
2021/07/01 16:59:31;;;;;;;9.07;6.35;;;;;20.00;101198.00;;;;10514751;28;20210;-78
2021/07/01 17:04:34;;;;;;;11.77;7.20;;;;;20.00;101197.00;;;;10500207;28;20727;-80
2021/07/01 17:09:38;;;;;;;18.42;7.75;;;;;19.70;101202.00;;;;10540398;28;20198;-80
2021/07/01 17:14:41;;;;;;;11.75;5.80;;;;;19.80;101195.00;;;;10539555;28;20192;-80
2021/07/01 17:19:45;;;;;;;10.52;5.22;;;;;19.80;101203.00;;;;10524304;28;20200;-80
2021/07/01 17:24:48;;;;;;;8.27;4.78;;;;;19.70;101205.00;;;;10524015;28;20185;-79
2021/07/01 17:29:54;;;;;;;9.48;4.75;;;;;19.60;101201.00;;;;10523358;28;20242;-80
2021/07/01 17:34:58;;;;;;;10.90;4.63;;;;;19.30;101203.00;;;;10507658;28;20234;-80
2021/07/01 17:40:03;;;;;;;13.40;4.45;;;;;18.90;101194.00;;;;10542487;28;20212;-80
2021/07/01 17:45:06;;;;;;;7.38;4.10;;;;;18.50;101212.00;;;;10540924;28;20184;-79
2021/07/01 17:50:08;;;;;;;11.43;4.95;;;;;18.20;101208.00;;;;10523536;28;20192;-80
2021/07/01 17:55:12;;;;;;;8.95;4.60;;;;;17.90;101210.00;;;;10505609;28;20242;-80
2021/07/01 18:00:14;;;;;;;8.70;4.07;;;;;17.60;101209.00;;;;10487067;28;20259;-80
2021/07/01 18:05:18;;;;;;;12.43;4.03;;;;;17.40;101219.00;;;;10482266;28;20193;-80
2021/07/01 18:10:20;;;;;;;6.22;3.90;;;;;17.20;101224.00;;;;10534475;28;20238;-79
2021/07/01 18:15:22;;;;;;;9.75;4.00;;;;;17.20;101221.00;;;;10540366;28;20609;-80
2021/07/01 18:20:26;;;;;;;6.50;4.35;;;;;17.10;101214.00;;;;10523045;28;20276;-80
2021/07/01 18:25:28;;;;;;;7.65;4.88;;;;;17.00;101220.00;;;;10547964;28;20199;-80
2021/07/01 18:30:34;;;;;;;6.75;3.80;;;;;16.90;101216.00;;;;10547760;28;20536;-80
2021/07/01 18:35:36;;;;;;;10.13;4.80;;;;;16.70;101227.00;;;;10520618;28;20225;-80
2021/07/01 18:40:38;;;;;;;8.82;4.50;;;;;17.00;101217.00;;;;10520163;28;20213;-80
2021/07/01 18:45:45;;;;;;;6.68;4.60;;;;;16.90;101222.00;;;;10519938;28;20197;-80
2021/07/01 18:50:47;;;;;;;11.00;4.28;;;;;16.70;101221.00;;;;10518873;28;20189;-80
2021/07/01 18:55:49;;;;;;;7.38;4.50;;;;;16.40;101222.00;;;;10502259;28;20193;-80
2021/07/01 19:00:51;;;;;;;8.73;4.20;;;;;16.10;101227.00;;;;10534347;28;20209;-80
2021/07/01 19:05:57;;;;;;;8.83;4.83;;;;;16.00;101235.00;;;;10518075;28;20690;-80
2021/07/01 19:10:59;;;;;;;9.43;4.80;;;;;16.10;101235.00;;;;10518619;28;20188;-80
2021/07/01 19:16:01;;;;;;;8.90;4.63;;;;;16.10;101238.00;;;;10500489;28;20220;-80
2021/07/01 19:21:03;;;;;;;10.27;4.90;;;;;16.10;101235.00;;;;10500950;28;20270;-80
2021/07/01 19:26:05;;;;;;;11.82;4.43;;;;;16.10;101232.00;;;;10491040;28;20565;-80
2021/07/01 19:31:11;;;;;;;8.45;4.32;;;;;15.90;101239.00;;;;10473926;28;20239;-80
2021/07/01 19:36:13;;;;;;;9.40;4.47;;;;;15.50;101242.00;;;;10476015;28;20209;-80
2021/07/01 19:41:15;;;;;;;10.77;4.47;;;;;15.30;101252.00;;;;10491362;28;20243;-80
2021/07/01 19:46:21;;;;;;;10.27;4.90;;;;;15.10;101253.00;;;;10485472;28;20189;-79
2021/07/01 19:51:23;;;;;;;8.37;4.50;;;;;14.90;101258.00;;;;10532561;28;20697;-80
2021/07/01 19:56:27;;;;;;;8.47;4.60;;;;;14.80;101258.00;;;;10517170;28;20250;-79
2021/07/01 20:01:29;;;;;;;10.70;5.37;;;;;14.60;101267.00;;;;10498593;28;20234;-79
2021/07/01 20:06:31;;;;;;;14.73;5.63;;;;;14.40;101273.00;;;;10516347;28;20197;-80
2021/07/01 20:11:33;;;;;;;9.60;5.37;;;;;14.20;101269.00;;;;10499342;28;20185;-79
2021/07/01 20:16:36;;;;;;;9.83;5.37;;;;;14.00;101272.00;;;;10515540;28;20185;-79
2021/07/01 20:21:38;;;;;;;10.50;6.43;;;;;13.90;101272.00;;;;10515876;28;20284;-80
2021/07/01 20:26:40;;;;;;;9.13;5.60;;;;;13.80;101276.00;;;;10517119;28;20204;-80
2021/07/01 20:31:43;;;;;;;10.70;6.63;;;;;13.70;101292.00;;;;10499661;28;20213;-80
2021/07/01 20:36:46;;;;;;;9.47;6.80;;;;;13.50;101290.00;;;;10516039;28;20220;-80
2021/07/01 20:41:48;;;;;;;15.50;7.03;;;;;13.40;101296.00;;;;10519875;28;20222;-80
2021/07/01 20:46:50;;;;;;;12.77;7.10;;;;;13.30;101298.00;;;;10506541;28;20201;-79
2021/07/01 20:51:52;;;;;;;12.07;7.33;;;;;13.20;101296.00;;;;10505700;28;20766;-79
2021/07/01 20:56:56;;;;;;;14.60;7.60;;;;;13.00;101288.00;;;;10523178;28;20644;-79
2021/07/01 21:01:58;;;;;;;14.37;7.03;;;;;12.90;101288.00;;;;10505748;28;20209;-79
2021/07/01 21:07:00;;;;;;;18.50;9.07;;;;;12.80;101292.00;;;;10505954;28;20197;-79
2021/07/01 21:12:03;;;;;;;10.83;7.87;;;;;12.70;101290.00;;;;10540401;28;20225;-79
2021/07/01 21:17:05;;;;;;;13.23;8.43;;;;;12.60;101289.00;;;;10498290;28;20232;-79
2021/07/01 21:22:15;;;;;;;12.57;8.00;;;;;12.60;101279.00;;;;10495678;28;20742;-80
2021/07/01 21:27:17;;;;;;;13.00;8.37;;;;;12.60;101278.00;;;;10495968;28;20228;-79
2021/07/01 21:32:19;;;;;;;12.77;8.33;;;;;12.60;101278.00;;;;10462632;28;20220;-79
2021/07/01 21:37:23;;;;;;;16.37;7.50;;;;;12.50;101277.00;;;;10462447;28;20204;-79
2021/07/01 21:42:27;;;;;;;12.00;7.83;;;;;12.40;101273.00;;;;10494319;28;20225;-79
2021/07/01 21:47:33;;;;;;;11.77;6.80;;;;;12.30;101268.00;;;;10529019;28;20193;-79
2021/07/01 21:52:35;;;;;;;15.33;7.90;;;;;12.20;101266.00;;;;10501295;28;20200;-80
2021/07/01 21:57:38;;;;;;;16.43;7.63;;;;;12.20;101271.00;;;;10503634;28;20185;-80
2021/07/01 22:02:42;;;;;;;13.80;9.03;;;;;12.20;101266.00;;;;10502802;28;20209;-80
2021/07/01 22:07:45;;;;;;;14.27;7.83;;;;;12.20;101271.00;;;;10536694;28;20610;-80
2021/07/01 22:12:48;;;;;;;14.93;8.23;;;;;12.10;101259.00;;;;10519773;28;20712;-80
2021/07/01 22:17:55;;;;;;;17.53;9.30;;;;;12.10;101256.00;;;;10501905;28;20189;-80
2021/07/01 22:22:57;;;;;;;18.87;8.30;;;;;12.00;101256.00;;;;10494511;28;20329;-79
2021/07/01 22:28:00;;;;;;;15.07;7.70;;;;;12.00;101262.00;;;;10493321;28;20194;-80
2021/07/01 22:33:03;;;;;;;18.63;7.60;;;;;12.00;101241.00;;;;10471911;28;20307;-79
2021/07/01 22:38:05;;;;;;;14.80;8.27;;;;;11.90;101238.00;;;;10518063;28;20192;-80
2021/07/01 22:43:07;;;;;;;13.17;7.90;;;;;11.90;101222.00;;;;10519095;28;20212;-79
2021/07/01 22:48:10;;;;;;;13.73;7.77;;;;;11.90;101222.00;;;;10502260;28;20185;-80
2021/07/01 22:53:12;;;;;;;13.20;8.20;;;;;11.90;101213.00;;;;10502460;28;20390;-79
2021/07/01 22:58:14;;;;;;;13.33;8.50;;;;;11.90;101217.00;;;;10517899;28;20189;-80
2021/07/01 23:03:16;;;;;;;13.70;8.40;;;;;11.80;101204.00;;;;10517914;28;20225;-79
2021/07/01 23:08:20;;;;;;;17.03;9.03;;;;;11.80;101212.00;;;;10480198;28;20645;-80
2021/07/01 23:13:22;;;;;;;16.27;9.73;;;;;11.80;101212.00;;;;10474852;28;20285;-80
2021/07/01 23:18:25;;;;;;;14.90;8.70;;;;;11.90;101203.00;;;;10491753;28;20193;-79
2021/07/01 23:23:27;;;;;;;12.80;8.90;;;;;11.90;101203.00;;;;10457084;28;20305;-79
2021/07/01 23:28:29;;;;;;;13.93;8.43;;;;;12.00;101203.00;;;;10457056;28;20181;-80
2021/07/01 23:33:31;;;;;;;15.00;8.77;;;;;11.90;101202.00;;;;10474896;28;20213;-79
2021/07/01 23:38:33;;;;;;;18.17;9.23;;;;;11.90;101197.00;;;;10491045;28;20205;-80
2021/07/01 23:43:35;;;;;;;15.60;8.07;;;;;11.90;101195.00;;;;10490415;28;20217;-80
2021/07/01 23:48:37;;;;;;;13.27;8.17;;;;;11.90;101196.00;;;;10485729;28;20212;-79
2021/07/01 23:53:40;;;;;;;10.70;7.17;;;;;12.00;101201.00;;;;10533268;28;20552;-79
2021/07/01 23:58:42;;;;;;;15.43;7.93;;;;;12.00;101189.00;;;;10473457;28;20201;-80
